sensor_id;sensor_type;location;lat;lon;timestamp;pressure;altitude;pressure_sealevel;temperature;humidity
82353;BME280;71954;47.430;18.920;2023-08-06T00:00:28;98549.78;;;20.61;81.13
82353;BME280;71954;47.430;18.920;2023-08-06T00:02:55;98546.84;;;20.63;81.75
82353;BME280;71954;47.430;18.920;2023-08-06T00:05:22;98545.59;;;20.65;81.36
82353;BME280;71954;47.430;18.920;2023-08-06T00:07:49;98533.28;;;20.69;81.09
82353;BME280;71954;47.430;18.920;2023-08-06T00:10:16;98524.16;;;20.70;80.72
82353;BME280;71954;47.430;18.920;2023-08-06T00:12:44;98516.91;;;20.71;80.92
82353;BME280;71954;47.430;18.920;2023-08-06T00:15:11;98524.84;;;20.66;81.46
82353;BME280;71954;47.430;18.920;2023-08-06T00:17:38;98523.56;;;20.68;81.36
82353;BME280;71954;47.430;18.920;2023-08-06T00:20:05;98528.72;;;20.70;81.58
82353;BME280;71954;47.430;18.920;2023-08-06T00:22:36;98539.59;;;20.63;81.49
82353;BME280;71954;47.430;18.920;2023-08-06T00:25:04;98544.59;;;20.60;81.22
82353;BME280;71954;47.430;18.920;2023-08-06T00:27:31;98547.72;;;20.57;81.58
82353;BME280;71954;47.430;18.920;2023-08-06T00:29:59;98541.50;;;20.56;81.78
82353;BME280;71954;47.430;18.920;2023-08-06T00:32:25;98527.22;;;20.56;81.69
82353;BME280;71954;47.430;18.920;2023-08-06T00:34:52;98540.94;;;20.54;81.21
82353;BME280;71954;47.430;18.920;2023-08-06T00:37:18;98537.63;;;20.52;81.20
82353;BME280;71954;47.430;18.920;2023-08-06T00:39:45;98533.72;;;20.48;81.59
82353;BME280;71954;47.430;18.920;2023-08-06T00:42:12;98528.56;;;20.47;81.76
82353;BME280;71954;47.430;18.920;2023-08-06T00:44:39;98519.66;;;20.46;81.91
82353;BME280;71954;47.430;18.920;2023-08-06T00:47:07;98515.44;;;20.50;81.77
82353;BME280;71954;47.430;18.920;2023-08-06T00:49:36;98507.16;;;20.52;82.01
82353;BME280;71954;47.430;18.920;2023-08-06T00:52:04;98511.50;;;20.53;81.40
82353;BME280;71954;47.430;18.920;2023-08-06T00:54:31;98502.16;;;20.55;81.56
82353;BME280;71954;47.430;18.920;2023-08-06T00:56:59;98503.19;;;20.54;81.20
82353;BME280;71954;47.430;18.920;2023-08-06T00:59:28;98500.94;;;20.51;81.09
82353;BME280;71954;47.430;18.920;2023-08-06T01:01:56;98488.19;;;20.40;81.39
82353;BME280;71954;47.430;18.920;2023-08-06T01:04:23;98489.50;;;20.31;81.28
82353;BME280;71954;47.430;18.920;2023-08-06T01:12:51;98465.22;;;20.13;81.38
82353;BME280;71954;47.430;18.920;2023-08-06T01:15:28;98474.34;;;20.12;81.76
82353;BME280;71954;47.430;18.920;2023-08-06T01:17:55;98464.16;;;20.14;81.93
82353;BME280;71954;47.430;18.920;2023-08-06T01:20:30;98467.66;;;20.14;81.49
82353;BME280;71954;47.430;18.920;2023-08-06T01:22:57;98446.94;;;20.15;80.96
82353;BME280;71954;47.430;18.920;2023-08-06T01:25:32;98466.00;;;20.13;81.98
82353;BME280;71954;47.430;18.920;2023-08-06T01:28:06;98463.09;;;20.15;81.27
82353;BME280;71954;47.430;18.920;2023-08-06T01:30:37;98463.56;;;20.12;81.17
82353;BME280;71954;47.430;18.920;2023-08-06T01:33:09;98470.00;;;20.11;81.17
82353;BME280;71954;47.430;18.920;2023-08-06T01:35:42;98472.91;;;20.09;81.11
82353;BME280;71954;47.430;18.920;2023-08-06T01:38:08;98471.03;;;20.10;80.92
82353;BME280;71954;47.430;18.920;2023-08-06T01:40:35;98469.38;;;20.09;81.00
82353;BME280;71954;47.430;18.920;2023-08-06T01:43:02;98473.56;;;20.05;81.16
82353;BME280;71954;47.430;18.920;2023-08-06T01:45:29;98468.59;;;20.02;81.48
82353;BME280;71954;47.430;18.920;2023-08-06T01:47:55;98458.44;;;20.04;81.05
82353;BME280;71954;47.430;18.920;2023-08-06T01:50:22;98462.03;;;19.98;81.32
82353;BME280;71954;47.430;18.920;2023-08-06T01:52:48;98449.84;;;19.95;81.25
82353;BME280;71954;47.430;18.920;2023-08-06T01:55:15;98449.00;;;19.95;81.59
82353;BME280;71954;47.430;18.920;2023-08-06T01:57:42;98437.16;;;19.96;81.89
82353;BME280;71954;47.430;18.920;2023-08-06T02:00:09;98440.06;;;20.01;82.10
82353;BME280;71954;47.430;18.920;2023-08-06T02:02:35;98433.84;;;20.00;81.03
82353;BME280;71954;47.430;18.920;2023-08-06T02:05:02;98420.59;;;19.99;81.81
82353;BME280;71954;47.430;18.920;2023-08-06T02:07:29;98421.78;;;20.03;81.52
82353;BME280;71954;47.430;18.920;2023-08-06T02:09:55;98407.72;;;20.01;81.24
82353;BME280;71954;47.430;18.920;2023-08-06T02:12:22;98402.34;;;20.01;80.88
82353;BME280;71954;47.430;18.920;2023-08-06T02:14:48;98396.50;;;20.04;80.87
82353;BME280;71954;47.430;18.920;2023-08-06T02:17:15;98378.69;;;20.03;80.89
82353;BME280;71954;47.430;18.920;2023-08-06T02:19:42;98392.75;;;20.05;81.15
82353;BME280;71954;47.430;18.920;2023-08-06T02:22:09;98392.75;;;20.05;80.94
82353;BME280;71954;47.430;18.920;2023-08-06T02:24:36;98381.53;;;20.08;80.42
82353;BME280;71954;47.430;18.920;2023-08-06T02:27:02;98385.28;;;20.07;79.99
82353;BME280;71954;47.430;18.920;2023-08-06T02:29:29;98379.50;;;20.03;80.54
82353;BME280;71954;47.430;18.920;2023-08-06T02:31:56;98389.44;;;20.03;80.50
82353;BME280;71954;47.430;18.920;2023-08-06T02:34:22;98389.44;;;20.03;81.18
82353;BME280;71954;47.430;18.920;2023-08-06T02:36:49;98386.53;;;20.04;80.66
82353;BME280;71954;47.430;18.920;2023-08-06T02:39:15;98378.25;;;20.06;80.84
82353;BME280;71954;47.430;18.920;2023-08-06T02:41:42;98377.22;;;20.07;80.18
82353;BME280;71954;47.430;18.920;2023-08-06T02:44:09;98370.31;;;20.11;80.41
82353;BME280;71954;47.430;18.920;2023-08-06T02:46:35;98362.22;;;20.11;80.21
82353;BME280;71954;47.430;18.920;2023-08-06T02:49:02;98359.53;;;20.11;80.56
82353;BME280;71954;47.430;18.920;2023-08-06T02:51:28;98357.53;;;20.06;80.16
82353;BME280;71954;47.430;18.920;2023-08-06T02:53:55;98370.28;;;19.92;80.98
82353;BME280;71954;47.430;18.920;2023-08-06T02:56:22;98369.69;;;19.90;80.76
82353;BME280;71954;47.430;18.920;2023-08-06T02:58:49;98375.53;;;19.87;80.37
82353;BME280;71954;47.430;18.920;2023-08-06T03:01:15;98378.66;;;19.84;81.02
82353;BME280;71954;47.430;18.920;2023-08-06T03:03:42;98376.41;;;19.81;81.32
82353;BME280;71954;47.430;18.920;2023-08-06T03:06:08;98377.47;;;19.80;80.98
82353;BME280;71954;47.430;18.920;2023-08-06T03:08:35;98381.81;;;19.81;80.64
82353;BME280;71954;47.430;18.920;2023-08-06T03:11:02;98380.75;;;19.82;80.94
82353;BME280;71954;47.430;18.920;2023-08-06T03:13:28;98376.19;;;19.83;80.32
82353;BME280;71954;47.430;18.920;2023-08-06T03:15:57;98363.31;;;19.85;80.29
82353;BME280;71954;47.430;18.920;2023-08-06T03:18:24;98366.69;;;19.80;80.16
82353;BME280;71954;47.430;18.920;2023-08-06T03:20:52;98362.81;;;19.76;80.63
82353;BME280;71954;47.430;18.920;2023-08-06T03:23:19;98371.09;;;19.75;80.42
82353;BME280;71954;47.430;18.920;2023-08-06T03:25:45;98371.09;;;19.75;80.84
82353;BME280;71954;47.430;18.920;2023-08-06T03:28:12;98371.91;;;19.75;80.73
82353;BME280;71954;47.430;18.920;2023-08-06T03:30:39;98366.75;;;19.74;80.60
82353;BME280;71954;47.430;18.920;2023-08-06T03:33:06;98361.63;;;19.66;81.17
82353;BME280;71954;47.430;18.920;2023-08-06T03:35:32;98360.81;;;19.65;81.62
82353;BME280;71954;47.430;18.920;2023-08-06T03:37:59;98359.19;;;19.64;80.81
82353;BME280;71954;47.430;18.920;2023-08-06T03:40:26;98367.53;;;19.56;81.20
82353;BME280;71954;47.430;18.920;2023-08-06T03:42:52;98380.38;;;19.54;81.23
82353;BME280;71954;47.430;18.920;2023-08-06T03:45:19;98375.00;;;19.54;80.92
82353;BME280;71954;47.430;18.920;2023-08-06T03:47:45;98381.19;;;19.55;80.91
82353;BME280;71954;47.430;18.920;2023-08-06T03:50:12;98372.91;;;19.56;80.90
82353;BME280;71954;47.430;18.920;2023-08-06T03:52:39;98373.94;;;19.55;81.34
82353;BME280;71954;47.430;18.920;2023-08-06T03:55:05;98373.75;;;19.57;80.43
82353;BME280;71954;47.430;18.920;2023-08-06T03:57:32;98363.81;;;19.57;80.93
82353;BME280;71954;47.430;18.920;2023-08-06T03:59:59;98368.16;;;19.58;81.15
82353;BME280;71954;47.430;18.920;2023-08-06T04:02:25;98361.69;;;19.59;80.60
82353;BME280;71954;47.430;18.920;2023-08-06T04:04:52;98359.19;;;19.64;81.28
82353;BME280;71954;47.430;18.920;2023-08-06T04:07:20;98363.88;;;19.44;81.21
82353;BME280;71954;47.430;18.920;2023-08-06T04:10:00;98361.78;;;19.53;81.38
82353;BME280;71954;47.430;18.920;2023-08-06T04:12:27;98350.34;;;19.57;81.42
82353;BME280;71954;47.430;18.920;2023-08-06T04:14:54;98352.81;;;19.59;80.72
82353;BME280;71954;47.430;18.920;2023-08-06T04:17:21;98356.31;;;19.59;80.60
82353;BME280;71954;47.430;18.920;2023-08-06T04:19:52;98354.69;;;19.58;81.26
82353;BME280;71954;47.430;18.920;2023-08-06T04:22:19;98354.44;;;19.60;81.09
82353;BME280;71954;47.430;18.920;2023-08-06T04:24:46;98356.59;;;19.51;81.34
82353;BME280;71954;47.430;18.920;2023-08-06T04:27:14;98349.78;;;19.48;80.96
82353;BME280;71954;47.430;18.920;2023-08-06T04:29:41;98351.91;;;19.40;80.68
82353;BME280;71954;47.430;18.920;2023-08-06T04:32:09;98342.44;;;19.31;81.13
82353;BME280;71954;47.430;18.920;2023-08-06T04:34:37;98343.97;;;19.20;80.72
82353;BME280;71954;47.430;18.920;2023-08-06T04:37:04;98343.81;;;19.15;80.99
82353;BME280;71954;47.430;18.920;2023-08-06T04:39:31;98338.06;;;19.05;80.10
82353;BME280;71954;47.430;18.920;2023-08-06T04:41:57;98338.19;;;18.92;80.81
82353;BME280;71954;47.430;18.920;2023-08-06T04:44:24;98346.03;;;18.93;81.05
82353;BME280;71954;47.430;18.920;2023-08-06T04:46:51;98346.03;;;18.93;81.17
82353;BME280;71954;47.430;18.920;2023-08-06T04:49:18;98351.41;;;18.93;81.68
82353;BME280;71954;47.430;18.920;2023-08-06T04:51:45;98335.88;;;18.95;81.22
82353;BME280;71954;47.430;18.920;2023-08-06T04:54:11;98339.19;;;18.97;80.87
82353;BME280;71954;47.430;18.920;2023-08-06T04:56:38;98338.16;;;18.98;81.18
82353;BME280;71954;47.430;18.920;2023-08-06T04:59:04;98338.06;;;18.80;81.62
82353;BME280;71954;47.430;18.920;2023-08-06T05:01:32;98342.81;;;18.78;81.65
82353;BME280;71954;47.430;18.920;2023-08-06T05:03:58;98345.72;;;18.77;81.99
82353;BME280;71954;47.430;18.920;2023-08-06T05:06:25;98341.63;;;18.74;81.47
82353;BME280;71954;47.430;18.920;2023-08-06T05:08:52;98329.63;;;18.70;81.73
82353;BME280;71954;47.430;18.920;2023-08-06T05:11:18;98330.03;;;18.74;81.98
82353;BME280;71954;47.430;18.920;2023-08-06T05:13:45;98324.66;;;18.74;81.45
82353;BME280;71954;47.430;18.920;2023-08-06T05:16:11;98320.53;;;18.71;80.61
82353;BME280;71954;47.430;18.920;2023-08-06T05:18:38;98318.28;;;18.68;80.76
82353;BME280;71954;47.430;18.920;2023-08-06T05:21:05;98316.00;;;18.65;81.10
82353;BME280;71954;47.430;18.920;2023-08-06T05:23:32;98325.34;;;18.62;81.28
82353;BME280;71954;47.430;18.920;2023-08-06T05:25:58;98326.41;;;18.55;80.93
82353;BME280;71954;47.430;18.920;2023-08-06T05:28:25;98328.06;;;18.56;81.16
82353;BME280;71954;47.430;18.920;2023-08-06T05:30:52;98338.38;;;18.59;81.70
82353;BME280;71954;47.430;18.920;2023-08-06T05:33:18;98336.13;;;18.56;81.49
82353;BME280;71954;47.430;18.920;2023-08-06T05:35:45;98327.25;;;18.49;81.48
82353;BME280;71954;47.430;18.920;2023-08-06T05:38:11;98322.28;;;18.46;81.23
82353;BME280;71954;47.430;18.920;2023-08-06T05:40:38;98326.72;;;18.20;81.11
82353;BME280;71954;47.430;18.920;2023-08-06T05:43:04;98320.97;;;18.10;81.01
82353;BME280;71954;47.430;18.920;2023-08-06T05:45:31;98325.13;;;18.06;82.04
82353;BME280;71954;47.430;18.920;2023-08-06T05:47:58;98324.94;;;18.01;80.74
82353;BME280;71954;47.430;18.920;2023-08-06T05:50:25;98326.19;;;17.99;81.48
82353;BME280;71954;47.430;18.920;2023-08-06T05:52:51;98319.41;;;17.96;82.20
82353;BME280;71954;47.430;18.920;2023-08-06T05:55:20;98313.81;;;17.91;81.22
82353;BME280;71954;47.430;18.920;2023-08-06T05:57:47;98305.97;;;17.89;81.68
82353;BME280;71954;47.430;18.920;2023-08-06T06:00:13;98303.91;;;17.85;82.22
82353;BME280;71954;47.430;18.920;2023-08-06T06:02:40;98304.34;;;17.82;81.48
82353;BME280;71954;47.430;18.920;2023-08-06T06:05:07;98298.16;;;17.75;82.09
82353;BME280;71954;47.430;18.920;2023-08-06T06:07:33;98290.34;;;17.67;82.31
82353;BME280;71954;47.430;18.920;2023-08-06T06:10:00;98288.28;;;17.62;81.96
82353;BME280;71954;47.430;18.920;2023-08-06T06:12:27;98293.63;;;17.56;81.51
82353;BME280;71954;47.430;18.920;2023-08-06T06:14:53;98294.06;;;17.39;82.63
82353;BME280;71954;47.430;18.920;2023-08-06T06:17:20;98301.09;;;17.40;83.52
82353;BME280;71954;47.430;18.920;2023-08-06T06:19:47;98304.16;;;17.37;83.90
82353;BME280;71954;47.430;18.920;2023-08-06T06:22:14;98308.31;;;17.33;83.76
82353;BME280;71954;47.430;18.920;2023-08-06T06:24:41;98309.13;;;17.40;83.65
82353;BME280;71954;47.430;18.920;2023-08-06T06:27:07;98303.34;;;17.43;84.10
82353;BME280;71954;47.430;18.920;2023-08-06T06:29:34;98317.56;;;17.50;83.74
82353;BME280;71954;47.430;18.920;2023-08-06T06:32:00;98316.75;;;17.50;83.17
82353;BME280;71954;47.430;18.920;2023-08-06T06:34:27;98320.06;;;17.52;82.56
82353;BME280;71954;47.430;18.920;2023-08-06T06:36:54;98329.75;;;17.53;82.26
82353;BME280;71954;47.430;18.920;2023-08-06T06:39:20;98332.66;;;17.58;83.59
82353;BME280;71954;47.430;18.920;2023-08-06T06:41:47;98331.41;;;17.61;82.99
82353;BME280;71954;47.430;18.920;2023-08-06T06:44:14;98329.34;;;17.63;83.74
82353;BME280;71954;47.430;18.920;2023-08-06T06:46:41;98330.38;;;17.68;82.36
82353;BME280;71954;47.430;18.920;2023-08-06T06:49:08;98335.53;;;17.70;82.68
82353;BME280;71954;47.430;18.920;2023-08-06T06:51:34;98332.22;;;17.68;82.23
82353;BME280;71954;47.430;18.920;2023-08-06T06:54:02;98336.19;;;17.65;82.05
82353;BME280;71954;47.430;18.920;2023-08-06T06:56:29;98332.44;;;17.73;83.49
82353;BME280;71954;47.430;18.920;2023-08-06T06:58:55;98317.97;;;17.80;82.68
82353;BME280;71954;47.430;18.920;2023-08-06T07:01:22;98317.75;;;17.82;82.80
82353;BME280;71954;47.430;18.920;2023-08-06T07:03:49;98321.06;;;17.84;81.87
82353;BME280;71954;47.430;18.920;2023-08-06T07:06:15;98321.28;;;17.82;81.39
82353;BME280;71954;47.430;18.920;2023-08-06T07:08:45;98319.22;;;17.78;81.14
82353;BME280;71954;47.430;18.920;2023-08-06T07:11:11;98320.25;;;17.77;81.79
82353;BME280;71954;47.430;18.920;2023-08-06T07:13:38;98316.94;;;17.75;81.63
82353;BME280;71954;47.430;18.920;2023-08-06T07:16:05;98337.78;;;17.79;82.45
82353;BME280;71954;47.430;18.920;2023-08-06T07:18:34;98332.22;;;17.81;81.78
82353;BME280;71954;47.430;18.920;2023-08-06T07:21:01;98341.91;;;17.82;81.26
82353;BME280;71954;47.430;18.920;2023-08-06T07:23:27;98342.56;;;17.84;81.12
82353;BME280;71954;47.430;18.920;2023-08-06T07:25:54;98345.63;;;17.87;81.92
82353;BME280;71954;47.430;18.920;2023-08-06T07:28:20;98350.16;;;17.87;80.46
82353;BME280;71954;47.430;18.920;2023-08-06T07:30:47;98351.38;;;17.91;80.66
82353;BME280;71954;47.430;18.920;2023-08-06T07:33:14;98348.94;;;17.96;81.98
82353;BME280;71954;47.430;18.920;2023-08-06T07:35:40;98345.63;;;17.94;80.85
82353;BME280;71954;47.430;18.920;2023-08-06T07:38:07;98350.53;;;17.97;81.11
82353;BME280;71954;47.430;18.920;2023-08-06T07:40:36;98359.69;;;17.83;80.59
82353;BME280;71954;47.430;18.920;2023-08-06T07:43:03;98359.25;;;17.86;80.71
82353;BME280;71954;47.430;18.920;2023-08-06T07:45:34;98359.66;;;17.96;80.05
82353;BME280;71954;47.430;18.920;2023-08-06T07:48:01;98360.03;;;18.06;79.53
82353;BME280;71954;47.430;18.920;2023-08-06T07:50:28;98356.09;;;18.09;79.17
82353;BME280;71954;47.430;18.920;2023-08-06T07:52:55;98357.13;;;18.14;79.50
82353;BME280;71954;47.430;18.920;2023-08-06T07:55:21;98350.50;;;18.17;79.85
82353;BME280;71954;47.430;18.920;2023-08-06T07:57:48;98350.47;;;18.23;78.63
82353;BME280;71954;47.430;18.920;2023-08-06T08:00:15;98346.94;;;18.29;79.70
82353;BME280;71954;47.430;18.920;2023-08-06T08:02:41;98338.69;;;18.31;79.16
82353;BME280;71954;47.430;18.920;2023-08-06T08:05:08;98331.44;;;18.32;79.80
82353;BME280;71954;47.430;18.920;2023-08-06T08:07:35;98332.66;;;18.36;79.31
82353;BME280;71954;47.430;18.920;2023-08-06T08:10:01;98328.97;;;18.30;79.06
82353;BME280;71954;47.430;18.920;2023-08-06T08:12:28;98324.44;;;18.30;78.14
82353;BME280;71954;47.430;18.920;2023-08-06T08:14:55;98327.13;;;18.30;79.30
82353;BME280;71954;47.430;18.920;2023-08-06T08:17:21;98341.78;;;18.28;78.80
82353;BME280;71954;47.430;18.920;2023-08-06T08:19:48;98342.19;;;18.32;78.75
82353;BME280;71954;47.430;18.920;2023-08-06T08:22:14;98350.63;;;18.35;78.27
82353;BME280;71954;47.430;18.920;2023-08-06T08:24:41;98358.34;;;18.25;78.24
82353;BME280;71954;47.430;18.920;2023-08-06T08:27:08;98365.78;;;18.16;79.27
82353;BME280;71954;47.430;18.920;2023-08-06T08:29:34;98371.59;;;18.20;78.89
82353;BME280;71954;47.430;18.920;2023-08-06T08:32:01;98369.09;;;18.25;78.77
82353;BME280;71954;47.430;18.920;2023-08-06T08:34:27;98364.94;;;18.22;77.98
82353;BME280;71954;47.430;18.920;2023-08-06T08:36:54;98354.81;;;18.24;78.13
82353;BME280;71954;47.430;18.920;2023-08-06T08:39:21;98349.84;;;18.21;78.48
82353;BME280;71954;47.430;18.920;2023-08-06T08:41:47;98356.69;;;18.24;79.05
82353;BME280;71954;47.430;18.920;2023-08-06T08:44:16;98352.53;;;18.28;77.72
82353;BME280;71954;47.430;18.920;2023-08-06T08:46:44;98348.59;;;18.30;77.70
82353;BME280;71954;47.430;18.920;2023-08-06T08:49:11;98350.03;;;18.33;77.73
82353;BME280;71954;47.430;18.920;2023-08-06T08:51:38;98341.56;;;18.29;77.76
82353;BME280;71954;47.430;18.920;2023-08-06T08:54:07;98340.53;;;18.30;76.84
82353;BME280;71954;47.430;18.920;2023-08-06T08:56:34;98341.75;;;18.35;77.52
82353;BME280;71954;47.430;18.920;2023-08-06T08:59:01;98346.31;;;18.34;75.90
82353;BME280;71954;47.430;18.920;2023-08-06T09:01:28;98356.84;;;18.36;75.66
82353;BME280;71954;47.430;18.920;2023-08-06T09:03:56;98361.59;;;18.34;75.51
82353;BME280;71954;47.430;18.920;2023-08-06T09:06:26;98364.56;;;18.19;76.80
82353;BME280;71954;47.430;18.920;2023-08-06T09:09:04;98376.53;;;18.16;75.92
82353;BME280;71954;47.430;18.920;2023-08-06T09:11:37;98373.25;;;18.14;77.11
82353;BME280;71954;47.430;18.920;2023-08-06T09:14:07;98374.69;;;18.10;75.84
82353;BME280;71954;47.430;18.920;2023-08-06T09:16:35;98375.97;;;18.01;77.36
82353;BME280;71954;47.430;18.920;2023-08-06T09:19:09;98367.91;;;18.01;77.66
82353;BME280;71954;47.430;18.920;2023-08-06T09:21:37;98360.44;;;18.03;77.03
82353;BME280;71954;47.430;18.920;2023-08-06T09:24:22;98364.16;;;18.09;77.33
82353;BME280;71954;47.430;18.920;2023-08-06T09:26:49;98366.63;;;18.10;77.13
82353;BME280;71954;47.430;18.920;2023-08-06T09:29:16;98370.75;;;18.19;76.48
82353;BME280;71954;47.430;18.920;2023-08-06T09:34:20;98365.78;;;18.16;76.76
82353;BME280;71954;47.430;18.920;2023-08-06T09:36:50;98361.44;;;18.22;75.72
82353;BME280;71954;47.430;18.920;2023-08-06T09:39:18;98367.81;;;18.27;75.48
82353;BME280;71954;47.430;18.920;2023-08-06T09:41:46;98357.47;;;18.38;75.74
82353;BME280;71954;47.430;18.920;2023-08-06T09:44:21;98352.63;;;18.53;74.52
82353;BME280;71954;47.430;18.920;2023-08-06T09:46:54;98349.91;;;18.66;73.51
82353;BME280;71954;47.430;18.920;2023-08-06T09:49:28;98351.13;;;18.70;73.95
82353;BME280;71954;47.430;18.920;2023-08-06T09:52:11;98348.88;;;18.67;74.07
82353;BME280;71954;47.430;18.920;2023-08-06T09:54:38;98359.78;;;18.79;74.04
82353;BME280;71954;47.430;18.920;2023-08-06T09:57:05;98369.63;;;18.91;72.22
82353;BME280;71954;47.430;18.920;2023-08-06T09:59:35;98368.09;;;19.02;72.50
82353;BME280;71954;47.430;18.920;2023-08-06T10:02:12;98380.69;;;19.08;71.43
82353;BME280;71954;47.430;18.920;2023-08-06T10:04:39;98382.72;;;19.13;71.60
82353;BME280;71954;47.430;18.920;2023-08-06T10:07:07;98391.75;;;19.25;71.18
82353;BME280;71954;47.430;18.920;2023-08-06T10:09:35;98397.56;;;19.22;70.78
82353;BME280;71954;47.430;18.920;2023-08-06T10:12:02;98391.91;;;19.30;70.87
82353;BME280;71954;47.430;18.920;2023-08-06T10:14:35;98411.47;;;19.43;70.13
82353;BME280;71954;47.430;18.920;2023-08-06T10:17:03;98399.22;;;19.54;69.75
82353;BME280;71954;47.430;18.920;2023-08-06T10:19:31;98392.13;;;19.60;69.43
82353;BME280;71954;47.430;18.920;2023-08-06T10:22:14;98402.25;;;19.64;69.50
82353;BME280;71954;47.430;18.920;2023-08-06T10:24:55;98406.91;;;19.75;67.61
82353;BME280;71954;47.430;18.920;2023-08-06T10:27:28;98413.22;;;19.63;68.40
82353;BME280;71954;47.430;18.920;2023-08-06T10:30:28;98412.47;;;19.56;67.99
82353;BME280;71954;47.430;18.920;2023-08-06T10:33:03;98410.44;;;19.51;68.53
82353;BME280;71954;47.430;18.920;2023-08-06T10:35:37;98410.28;;;19.39;68.87
82353;BME280;71954;47.430;18.920;2023-08-06T10:41:00;98429.31;;;19.38;69.15
82353;BME280;71954;47.430;18.920;2023-08-06T10:43:38;98438.03;;;19.40;69.23
82353;BME280;71954;47.430;18.920;2023-08-06T10:46:20;98436.97;;;19.41;68.65
82353;BME280;71954;47.430;18.920;2023-08-06T10:48:47;98434.28;;;19.41;69.83
82353;BME280;71954;47.430;18.920;2023-08-06T10:51:14;98428.47;;;19.44;69.41
82353;BME280;71954;47.430;18.920;2023-08-06T10:53:45;98426.91;;;19.61;69.58
82353;BME280;71954;47.430;18.920;2023-08-06T10:56:17;98434.00;;;19.80;69.78
82353;BME280;71954;47.430;18.920;2023-08-06T10:58:47;98439.56;;;19.85;68.61
82353;BME280;71954;47.430;18.920;2023-08-06T11:01:15;98432.09;;;19.87;68.73
82353;BME280;71954;47.430;18.920;2023-08-06T11:03:43;98433.13;;;19.86;67.94
82353;BME280;71954;47.430;18.920;2023-08-06T11:06:11;98447.25;;;19.82;68.06
82353;BME280;71954;47.430;18.920;2023-08-06T11:08:48;98447.09;;;19.77;68.36
82353;BME280;71954;47.430;18.920;2023-08-06T11:11:15;98457.47;;;19.73;71.55
82353;BME280;71954;47.430;18.920;2023-08-06T11:13:44;98447.50;;;19.49;69.92
82353;BME280;71954;47.430;18.920;2023-08-06T11:16:18;98461.44;;;19.33;69.96
82353;BME280;71954;47.430;18.920;2023-08-06T11:18:45;98465.41;;;19.24;71.22
82353;BME280;71954;47.430;18.920;2023-08-06T11:21:12;98459.34;;;19.03;74.47
82353;BME280;71954;47.430;18.920;2023-08-06T11:23:40;98452.69;;;19.06;74.73
82353;BME280;71954;47.430;18.920;2023-08-06T11:26:07;98445.91;;;18.97;71.95
82353;BME280;71954;47.430;18.920;2023-08-06T11:28:34;98447.00;;;18.83;71.43
82353;BME280;71954;47.430;18.920;2023-08-06T11:31:00;98441.44;;;18.84;70.89
82353;BME280;71954;47.430;18.920;2023-08-06T11:33:29;98450.13;;;18.86;71.12
82353;BME280;71954;47.430;18.920;2023-08-06T11:35:57;98451.13;;;18.92;71.39
82353;BME280;71954;47.430;18.920;2023-08-06T11:38:28;98455.66;;;18.98;71.11
82353;BME280;71954;47.430;18.920;2023-08-06T11:40:55;98458.69;;;19.08;70.45
82353;BME280;71954;47.430;18.920;2023-08-06T11:43:22;98462.97;;;19.22;70.17
82353;BME280;71954;47.430;18.920;2023-08-06T11:45:50;98455.38;;;19.44;70.56
82353;BME280;71954;47.430;18.920;2023-08-06T11:48:21;98455.47;;;19.62;68.83
82353;BME280;71954;47.430;18.920;2023-08-06T11:50:47;98450.41;;;19.72;69.76
82353;BME280;71954;47.430;18.920;2023-08-06T11:53:14;98448.34;;;19.74;69.54
82353;BME280;71954;47.430;18.920;2023-08-06T11:55:41;98452.28;;;19.72;72.14
82353;BME280;71954;47.430;18.920;2023-08-06T11:58:10;98460.03;;;19.62;72.28
82353;BME280;71954;47.430;18.920;2023-08-06T12:00:38;98464.47;;;19.49;73.73
82353;BME280;71954;47.430;18.920;2023-08-06T12:03:05;98470.88;;;19.48;76.37
82353;BME280;71954;47.430;18.920;2023-08-06T12:05:32;98478.44;;;19.27;75.86
82353;BME280;71954;47.430;18.920;2023-08-06T12:08:04;98485.38;;;19.09;77.29
82353;BME280;71954;47.430;18.920;2023-08-06T12:10:32;98486.22;;;19.03;79.50
82353;BME280;71954;47.430;18.920;2023-08-06T12:12:59;98497.69;;;18.86;76.87
82353;BME280;71954;47.430;18.920;2023-08-06T12:15:26;98506.63;;;18.73;78.51
82353;BME280;71954;47.430;18.920;2023-08-06T12:17:52;98501.09;;;18.55;77.29
82353;BME280;71954;47.430;18.920;2023-08-06T12:20:19;98504.59;;;18.55;79.37
82353;BME280;71954;47.430;18.920;2023-08-06T12:22:46;98496.53;;;18.62;77.97
82353;BME280;71954;47.430;18.920;2023-08-06T12:25:13;98512.81;;;18.74;76.94
82353;BME280;71954;47.430;18.920;2023-08-06T12:27:44;98511.56;;;18.76;76.81
82353;BME280;71954;47.430;18.920;2023-08-06T12:30:12;98511.56;;;18.76;74.79
82353;BME280;71954;47.430;18.920;2023-08-06T12:32:39;98515.28;;;18.75;72.32
82353;BME280;71954;47.430;18.920;2023-08-06T12:35:07;98521.88;;;18.86;73.31
82353;BME280;71954;47.430;18.920;2023-08-06T12:37:34;98514.41;;;18.88;72.86
82353;BME280;71954;47.430;18.920;2023-08-06T12:40:01;98512.94;;;18.98;72.00
82353;BME280;71954;47.430;18.920;2023-08-06T12:42:50;98510.00;;;19.06;71.54
82353;BME280;71954;47.430;18.920;2023-08-06T12:45:17;98520.34;;;19.09;71.21
82353;BME280;71954;47.430;18.920;2023-08-06T12:47:47;98524.19;;;19.27;71.43
82353;BME280;71954;47.430;18.920;2023-08-06T12:50:15;98523.75;;;19.30;70.71
82353;BME280;71954;47.430;18.920;2023-08-06T12:52:43;98529.09;;;19.36;69.29
82353;BME280;71954;47.430;18.920;2023-08-06T12:55:10;98527.50;;;19.29;70.73
82353;BME280;71954;47.430;18.920;2023-08-06T12:57:36;98523.34;;;19.33;69.99
82353;BME280;71954;47.430;18.920;2023-08-06T13:00:22;98521.00;;;19.43;69.76
82353;BME280;71954;47.430;18.920;2023-08-06T13:02:49;98522.69;;;19.37;69.91
82353;BME280;71954;47.430;18.920;2023-08-06T13:05:15;98526.56;;;19.48;70.88